Flight Track Log - Related Links

Times and Time Zones

All times are in EDT time to prevent confusion due to time zone crossing. See the SKQ221 flight status page for this flight to view local times or setup timezone preferences in your user account.

Time Position Orientation Groundspeed Altitude Reporting Facility
EDT Latitude Longitude Course Direction KTS MPH feet Rate Location/Type
Tue 12:41:11 AM 40.4692 -80.1978 236° Southwest 143 165 1,800  Level FAA TRACON SMA TRACON (SMA)
Tue 12:41:51 AM 40.4550 -80.2256 261° West 147 169 2,400 825 Climbing FAA TRACON SMA TRACON (SMA)
Tue 12:42:31 AM 40.4511 -80.2597 259° West 150 173 2,900 815 Climbing FAA TRACON SMA TRACON (SMA)
Tue 12:43:12 AM 40.4456 -80.2986 262° West 153 176 3,500 815 Climbing FAA TRACON SMA TRACON (SMA)
Tue 12:43:52 AM 40.4417 -80.3336 260° West 154 177 4,000 759 Climbing FAA TRACON SMA TRACON (SMA)
Tue 12:44:31 AM 40.4364 -80.3742 262° West 159 183 4,500 825 Climbing FAA TRACON SMA TRACON (SMA)
Tue 12:45:12 AM 40.4319 -80.4133 260° West 158 182 5,100 825 Climbing FAA TRACON SMA TRACON (SMA)
Tue 12:45:51 AM 40.4272 -80.4494 260° West 161 185 5,600 675 Climbing FAA TRACON SMA TRACON (SMA)
Tue 12:46:32 AM 40.4219 -80.4906 260° West 163 188 6,000 296 Climbing FAA TRACON SMA TRACON (SMA)
Tue 12:47:12 AM 40.4158 -80.5367 262° West 178 205 6,000  Level FAA TRACON SMA TRACON (SMA)
Tue 12:47:51 AM 40.4111 -80.5797 261° West 189 217 6,000  Level FAA TRACON SMA TRACON (SMA)
Tue 12:48:32 AM 40.4053 -80.6283 261° West 193 222 6,000  Level FAA TRACON SMA TRACON (SMA)
Tue 12:49:12 AM 40.3992 -80.6767 260° West 194 223 6,000  Level FAA TRACON SMA TRACON (SMA)
Tue 12:49:51 AM 40.3936 -80.7200 260° West 195 224 6,000  Level FAA TRACON SMA TRACON (SMA)
Tue 12:50:32 AM 40.3872 -80.7692 261° West 196 226 6,000  Level FAA TRACON SMA TRACON (SMA)
Tue 12:51:12 AM 40.3811 -80.8181 260° West 197 227 6,000  Level FAA TRACON SMA TRACON (SMA)
Tue 12:51:51 AM 40.3756 -80.8614 260° West 196 226 6,000  Level FAA TRACON SMA TRACON (SMA)
Tue 12:52:32 AM 40.3692 -80.9103 262° West 196 226 6,000  Level FAA TRACON SMA TRACON (SMA)
Tue 12:53:12 AM 40.3636 -80.9597 260° West 196 226 6,000  Level FAA TRACON SMA TRACON (SMA)
Tue 12:53:51 AM 40.3575 -81.0031 260° West 197 227 6,000  Level FAA TRACON SMA TRACON (SMA)
Tue 12:54:32 AM 40.3511 -81.0514 260° West 195 224 6,000  Level FAA TRACON SMA TRACON (SMA)
Tue 12:55:12 AM 40.3447 -81.1003 260° West 195 224 6,000  Level FAA TRACON SMA TRACON (SMA)
Tue 12:55:51 AM 40.3383 -81.1475 259° West 194 223 6,000  Level FAA TRACON SMA TRACON (SMA)
Tue 12:56:32 AM 40.3317 -81.1914 261° West 194 223 6,000  Level FAA TRACON SMA TRACON (SMA)
Tue 12:57:12 AM 40.3258 -81.2400 261° West 194 223 6,000  Level FAA TRACON SMA TRACON (SMA)
Tue 12:57:51 AM 40.3208 -81.2833 261° West 195 224 6,000  Level FAA TRACON SMA TRACON (SMA)
Tue 12:58:32 AM 40.3147 -81.3319 261° West 194 223 6,000  Level FAA TRACON SMA TRACON (SMA)
Tue 12:59:12 AM 40.3086 -81.3808 259° West 195 224 6,000  Level FAA TRACON SMA TRACON (SMA)
Tue 12:59:51 AM 40.3014 -81.4292 261° West 195 224 6,000  Level FAA TRACON SMA TRACON (SMA)
Tue 01:00:32 AM 40.2994 -81.4453 266° West 195 224 6,000  Level FAA TRACON SMA TRACON (SMA)
Tue 01:01:06 AM 40.2958 -81.5078 261° West 198 228 6,000  Level Indianapolis Center
Tue 01:02:06 AM 40.2867 -81.5814 261° West 204 235 6,000  Level Indianapolis Center
Tue 01:03:06 AM 40.2775 -81.6581 258° West 213 245 6,000  Level Indianapolis Center
Tue 01:04:06 AM 40.2661 -81.7289 260° West 201 231 6,000  Level Indianapolis Center
Tue 01:05:06 AM 40.2567 -81.8000 262° West 196 226 6,000  Level Indianapolis Center
Tue 01:06:06 AM 40.2494 -81.8681 259° West 202 232 6,000  Level Indianapolis Center
Tue 01:07:06 AM 40.2400 -81.9336 257° West 196 226 6,000  Level Indianapolis Center
Tue 01:08:06 AM 40.2283 -82.0019 260° West 206 237 6,000  Level Indianapolis Center
Tue 01:09:06 AM 40.2189 -82.0700 261° West 201 231 6,000  Level Indianapolis Center
Tue 01:09:41 AM 40.2131 -82.1164 260° West 192 221 6,000  Level Indianapolis Center
Tue 01:10:41 AM 40.2036 -82.1872 260° West 193 222 6,000  Level Indianapolis Center
Tue 01:11:42 AM 40.1939 -82.2581 259° West 192 221 6,000  Level Indianapolis Center
Tue 01:12:49 AM 40.1822 -82.3344 262° West 192 221 6,000 -47 Level Indianapolis Center
Tue 01:13:49 AM 40.1747 -82.4050 257° West 193 222 5,900 -298 Descending Indianapolis Center
Tue 01:14:50 AM 40.1628 -82.4733 260° West 200 230 5,400 -545 Descending Indianapolis Center
Tue 01:15:50 AM 40.1531 -82.5439 260° West 197 227 4,800 -694 Descending Indianapolis Center
Tue 01:16:51 AM 40.1431 -82.6175 261° West 201 231 4,000 -738 Descending Indianapolis Center
Tue 01:17:52 AM 40.1333 -82.6964 259° West 200 230 3,300 -744 Descending Indianapolis Center
Tue 01:18:52 AM 40.1233 -82.7642 259° West 202 232 2,500 -800 Descending Indianapolis Center

Login

Don't have an account? Register now (free) for customized features, flight alerts, and more!